createdAt,value
2023-08-07T00:00:14.433Z,12.10
2023-08-07T00:02:41.054Z,12.10
2023-08-07T00:05:07.849Z,12.10
2023-08-07T00:07:34.469Z,12.00
2023-08-07T00:10:01.085Z,12.00
2023-08-07T00:12:27.940Z,11.90
2023-08-07T00:14:54.562Z,11.80
2023-08-07T00:17:21.231Z,11.90
2023-08-07T00:19:47.826Z,11.80
2023-08-07T00:22:14.455Z,11.70
2023-08-07T00:24:41.083Z,11.60
2023-08-07T00:27:08.467Z,11.40
2023-08-07T00:29:35.088Z,11.50
2023-08-07T00:32:01.695Z,11.40
2023-08-07T00:34:28.277Z,11.50
2023-08-07T00:36:55.195Z,11.40
2023-08-07T00:39:22.097Z,11.30
2023-08-07T00:41:48.883Z,11.30
2023-08-07T00:44:15.501Z,11.30
2023-08-07T00:46:43.600Z,11.30
2023-08-07T00:49:12.523Z,11.20
2023-08-07T00:51:40.351Z,11.20
2023-08-07T00:54:10.906Z,11.10
2023-08-07T00:56:38.238Z,11.10
2023-08-07T00:59:04.902Z,11.10
2023-08-07T01:01:31.604Z,11.20
2023-08-07T01:03:58.194Z,11.10
2023-08-07T01:06:24.821Z,11.20
2023-08-07T01:08:51.762Z,11.10
2023-08-07T01:11:42.846Z,11.10
2023-08-07T01:14:24.600Z,11.10
2023-08-07T01:17:10.249Z,11.10
2023-08-07T01:19:37.362Z,11.10
2023-08-07T01:22:18.026Z,11.10
2023-08-07T01:24:49.273Z,11.00
2023-08-07T01:27:18.692Z,11.10
2023-08-07T01:29:51.514Z,11.10
2023-08-07T01:32:27.142Z,11.10
2023-08-07T01:34:56.740Z,11.00
2023-08-07T01:37:24.809Z,11.00
2023-08-07T01:39:53.606Z,11.00
2023-08-07T01:42:20.266Z,11.00
2023-08-07T01:44:47.064Z,11.00
2023-08-07T01:47:13.797Z,11.00
2023-08-07T01:49:40.387Z,11.00
2023-08-07T01:52:08.183Z,11.00
2023-08-07T01:54:34.838Z,11.00
2023-08-07T01:57:01.431Z,11.00
2023-08-07T01:59:28.091Z,11.10
2023-08-07T02:01:54.741Z,11.00
2023-08-07T02:04:21.404Z,10.90
2023-08-07T02:06:48.013Z,10.90
2023-08-07T02:09:14.642Z,10.90
2023-08-07T02:11:41.222Z,11.00
2023-08-07T02:14:07.797Z,11.00
2023-08-07T02:16:34.495Z,11.00
2023-08-07T02:19:01.159Z,11.00
2023-08-07T02:21:27.745Z,11.00
2023-08-07T02:23:54.384Z,11.10
2023-08-07T02:26:21.022Z,11.00
2023-08-07T02:28:47.652Z,11.10
2023-08-07T02:31:14.280Z,11.10
2023-08-07T02:33:40.894Z,11.00
2023-08-07T02:36:07.651Z,11.00
2023-08-07T02:38:34.675Z,11.10
2023-08-07T02:41:01.293Z,11.10
2023-08-07T02:43:27.913Z,11.10
2023-08-07T02:45:54.584Z,11.10
2023-08-07T02:48:21.199Z,11.10
2023-08-07T02:50:47.823Z,11.10
2023-08-07T02:53:14.437Z,11.10
2023-08-07T02:55:44.510Z,11.10
2023-08-07T02:58:11.159Z,11.10
2023-08-07T03:00:37.869Z,11.10
2023-08-07T03:03:04.524Z,11.10
2023-08-07T03:05:31.162Z,11.20
2023-08-07T03:07:57.831Z,11.20
2023-08-07T03:10:26.605Z,11.20
2023-08-07T03:12:53.591Z,11.20
2023-08-07T03:15:20.205Z,11.30
2023-08-07T03:17:46.796Z,11.30
2023-08-07T03:20:13.534Z,11.20
2023-08-07T03:22:40.170Z,11.20
2023-08-07T03:25:07.210Z,11.20
2023-08-07T03:27:33.847Z,11.20
2023-08-07T03:30:00.443Z,11.20
2023-08-07T03:32:27.040Z,11.20
2023-08-07T03:34:53.669Z,11.20
2023-08-07T03:37:20.373Z,11.20
2023-08-07T03:39:46.967Z,11.20
2023-08-07T03:42:13.552Z,11.30
2023-08-07T03:44:40.148Z,11.30
2023-08-07T03:47:06.848Z,11.30
2023-08-07T03:49:33.535Z,11.30
2023-08-07T03:52:00.197Z,11.40
2023-08-07T03:54:26.790Z,11.30
2023-08-07T03:56:53.632Z,11.30
2023-08-07T03:59:20.639Z,11.40
2023-08-07T04:01:47.240Z,11.40
2023-08-07T04:04:13.844Z,11.40
2023-08-07T04:06:40.732Z,11.40
2023-08-07T04:09:07.306Z,11.40
2023-08-07T04:11:33.897Z,11.40
2023-08-07T04:14:00.529Z,11.40
2023-08-07T04:16:27.107Z,11.50
2023-08-07T04:18:53.737Z,11.50
2023-08-07T04:21:20.618Z,11.40
2023-08-07T04:23:47.242Z,11.40
2023-08-07T04:26:13.885Z,11.50
2023-08-07T04:28:40.667Z,11.50
2023-08-07T04:31:07.267Z,11.40
2023-08-07T04:33:33.869Z,11.50
2023-08-07T04:36:00.493Z,11.40
2023-08-07T04:38:27.131Z,11.50
2023-08-07T04:40:53.752Z,11.50
2023-08-07T04:43:20.431Z,11.50
2023-08-07T04:45:47.552Z,11.40
2023-08-07T04:48:15.021Z,11.40
2023-08-07T04:50:42.266Z,11.40
2023-08-07T04:53:09.084Z,11.40
2023-08-07T04:55:35.828Z,11.40
2023-08-07T04:58:02.844Z,11.40
2023-08-07T05:00:29.477Z,11.40
2023-08-07T05:02:56.262Z,11.40
2023-08-07T05:05:23.246Z,11.40
2023-08-07T05:07:49.843Z,11.40
2023-08-07T05:10:16.635Z,11.40
2023-08-07T05:12:43.341Z,11.40
2023-08-07T05:15:10.616Z,11.40
2023-08-07T05:17:37.302Z,11.40
2023-08-07T05:20:04.334Z,11.40
2023-08-07T05:22:30.925Z,11.40
2023-08-07T05:24:57.490Z,11.50
2023-08-07T05:27:24.142Z,11.40
2023-08-07T05:29:50.728Z,11.40
2023-08-07T05:32:17.332Z,11.40
2023-08-07T05:34:44.748Z,11.50
2023-08-07T05:37:11.358Z,11.50
2023-08-07T05:39:38.443Z,11.50
2023-08-07T05:42:05.572Z,11.50
2023-08-07T05:44:32.166Z,11.50
2023-08-07T05:46:58.769Z,11.50
2023-08-07T05:49:26.429Z,11.50
2023-08-07T05:51:54.662Z,11.50
2023-08-07T05:54:21.647Z,11.50
2023-08-07T05:56:48.533Z,11.50
2023-08-07T05:59:15.146Z,11.50
2023-08-07T06:01:45.091Z,11.50
2023-08-07T06:04:11.786Z,11.50
2023-08-07T06:06:38.411Z,11.50
2023-08-07T06:09:05.314Z,11.60
2023-08-07T06:11:32.175Z,11.60
2023-08-07T06:13:59.115Z,11.60
2023-08-07T06:16:26.081Z,11.70
2023-08-07T06:18:52.794Z,11.80
2023-08-07T06:21:19.609Z,11.80
2023-08-07T06:23:46.219Z,11.80
2023-08-07T06:26:12.825Z,11.80
2023-08-07T06:28:39.425Z,11.90
2023-08-07T06:31:10.359Z,12.00
2023-08-07T06:33:37.817Z,12.10
2023-08-07T06:36:05.139Z,12.20
2023-08-07T06:38:32.149Z,12.40
2023-08-07T06:40:58.937Z,12.50
2023-08-07T06:43:25.844Z,12.60
2023-08-07T06:45:53.501Z,12.70
2023-08-07T06:48:20.281Z,12.60
2023-08-07T06:50:51.058Z,12.80
2023-08-07T06:53:18.355Z,12.90
2023-08-07T06:55:45.712Z,13.00
2023-08-07T06:58:12.329Z,13.20
2023-08-07T07:00:39.257Z,13.30
2023-08-07T07:03:06.255Z,13.40
2023-08-07T07:05:33.914Z,13.30
2023-08-07T07:08:00.702Z,13.40
2023-08-07T07:10:27.368Z,13.40
2023-08-07T07:12:53.963Z,13.50
2023-08-07T07:15:20.586Z,13.60
2023-08-07T07:17:47.395Z,13.60
2023-08-07T07:20:14.655Z,13.50
2023-08-07T07:22:41.395Z,13.50
2023-08-07T07:25:08.608Z,13.50
2023-08-07T07:27:35.246Z,13.60
2023-08-07T07:30:01.967Z,13.60
2023-08-07T07:32:28.687Z,13.80
2023-08-07T07:34:55.458Z,13.80
2023-08-07T07:37:22.285Z,13.80
2023-08-07T07:39:48.930Z,13.70
2023-08-07T07:42:18.312Z,13.80
2023-08-07T07:44:44.886Z,14.10
2023-08-07T07:47:13.931Z,14.10
2023-08-07T07:49:46.267Z,14.20
2023-08-07T07:52:12.908Z,14.20
2023-08-07T07:54:39.612Z,14.20
2023-08-07T07:57:06.489Z,14.20
2023-08-07T07:59:33.132Z,14.20
2023-08-07T08:01:59.962Z,14.30
2023-08-07T08:04:26.733Z,14.30
2023-08-07T08:06:53.624Z,14.30
2023-08-07T08:09:20.264Z,14.10
2023-08-07T08:11:46.889Z,14.00
2023-08-07T08:14:13.528Z,13.90
2023-08-07T08:16:40.129Z,13.80
2023-08-07T08:19:06.855Z,13.90
2023-08-07T08:21:33.467Z,13.80
2023-08-07T08:24:00.277Z,13.90
2023-08-07T08:26:26.872Z,13.80
2023-08-07T08:28:53.557Z,13.90
2023-08-07T08:31:20.265Z,13.90
2023-08-07T08:33:46.892Z,14.00
2023-08-07T08:36:13.545Z,14.00
2023-08-07T08:38:40.141Z,14.10
2023-08-07T08:41:09.803Z,14.20
2023-08-07T08:43:37.350Z,14.20
2023-08-07T08:46:05.713Z,14.20
2023-08-07T08:48:36.076Z,14.20
2023-08-07T08:51:03.403Z,14.20
2023-08-07T08:53:30.250Z,14.20
2023-08-07T08:55:56.915Z,14.10
2023-08-07T08:58:24.683Z,14.10
2023-08-07T09:00:51.997Z,14.40
2023-08-07T09:03:20.266Z,14.60
2023-08-07T09:05:48.336Z,14.70
2023-08-07T09:08:15.212Z,14.70
2023-08-07T09:10:42.209Z,14.50
2023-08-07T09:13:15.007Z,14.50
2023-08-07T09:15:44.270Z,14.40
2023-08-07T09:18:11.511Z,14.50
2023-08-07T09:20:39.211Z,14.50
2023-08-07T09:23:05.888Z,14.50
2023-08-07T09:25:33.865Z,14.50
2023-08-07T09:28:07.288Z,14.50
2023-08-07T09:30:36.312Z,14.40
2023-08-07T09:33:03.608Z,14.50
2023-08-07T09:35:31.737Z,14.50
2023-08-07T09:37:58.761Z,14.50
2023-08-07T09:40:25.466Z,14.70
2023-08-07T09:42:54.379Z,14.80
2023-08-07T09:45:21.987Z,14.80
2023-08-07T09:48:01.182Z,15.10
2023-08-07T09:50:28.404Z,15.20
2023-08-07T09:52:55.776Z,15.40
2023-08-07T09:55:23.171Z,15.50
2023-08-07T09:57:50.181Z,15.50
2023-08-07T10:00:18.326Z,15.50
2023-08-07T10:02:45.071Z,15.50
2023-08-07T10:05:12.604Z,15.50
2023-08-07T10:07:39.980Z,15.50
2023-08-07T10:10:07.884Z,15.50
2023-08-07T10:12:35.017Z,15.60
2023-08-07T10:15:01.830Z,15.80
2023-08-07T10:17:28.915Z,15.80
2023-08-07T10:19:55.793Z,15.90
2023-08-07T10:22:25.789Z,15.90
2023-08-07T10:24:54.699Z,16.10
2023-08-07T10:27:24.643Z,16.10
2023-08-07T10:29:54.474Z,16.20
2023-08-07T10:32:24.380Z,16.20
2023-08-07T10:34:51.305Z,16.10
2023-08-07T10:37:38.886Z,15.90
2023-08-07T10:40:06.216Z,16.00
2023-08-07T10:42:51.581Z,15.90
2023-08-07T10:45:19.172Z,15.90
2023-08-07T10:47:57.400Z,15.80
2023-08-07T10:50:36.069Z,15.60
2023-08-07T10:53:05.964Z,15.60
2023-08-07T10:55:47.370Z,15.50
2023-08-07T10:58:30.196Z,15.50
2023-08-07T11:01:27.815Z,15.60
2023-08-07T11:03:55.581Z,15.70
2023-08-07T11:06:32.906Z,15.70
2023-08-07T11:09:00.602Z,15.90
2023-08-07T11:11:31.015Z,16.10
2023-08-07T11:13:57.639Z,16.20
2023-08-07T11:16:24.470Z,16.30
2023-08-07T11:18:51.435Z,16.40
2023-08-07T11:21:19.638Z,16.70
2023-08-07T11:23:46.268Z,16.80
2023-08-07T11:26:13.245Z,16.60
2023-08-07T11:28:39.847Z,16.70
2023-08-07T11:31:07.338Z,16.80
2023-08-07T11:33:34.011Z,16.80
2023-08-07T11:36:00.889Z,16.90
2023-08-07T11:38:36.037Z,16.90
2023-08-07T11:41:04.715Z,16.90
2023-08-07T11:43:32.202Z,17.00
2023-08-07T11:46:00.335Z,17.30
2023-08-07T11:48:31.517Z,17.40
2023-08-07T11:50:59.267Z,17.60
2023-08-07T11:53:27.587Z,17.50
2023-08-07T11:56:05.058Z,17.40
2023-08-07T11:58:39.940Z,17.50
2023-08-07T12:01:28.311Z,17.60
2023-08-07T12:04:07.197Z,17.50
2023-08-07T12:06:33.858Z,17.30
2023-08-07T12:09:00.629Z,17.30
2023-08-07T12:11:27.251Z,17.50
2023-08-07T12:13:53.890Z,17.70
2023-08-07T12:16:20.611Z,17.90
2023-08-07T12:18:52.085Z,17.90
2023-08-07T12:21:21.359Z,17.70
2023-08-07T12:23:48.010Z,17.70
2023-08-07T12:26:14.772Z,17.90
2023-08-07T12:28:41.403Z,18.00
2023-08-07T12:31:08.470Z,18.00
2023-08-07T12:33:35.581Z,18.10
2023-08-07T12:36:03.144Z,18.40
2023-08-07T12:38:30.193Z,18.50
2023-08-07T12:40:57.288Z,18.40
2023-08-07T12:43:23.991Z,18.20
2023-08-07T12:45:53.655Z,18.20
2023-08-07T12:48:20.390Z,18.00
2023-08-07T12:50:47.236Z,17.80
2023-08-07T12:53:13.852Z,18.10
2023-08-07T12:55:40.541Z,18.50
2023-08-07T12:58:07.264Z,18.90
2023-08-07T13:00:34.044Z,19.10
2023-08-07T13:03:00.850Z,19.20
2023-08-07T13:05:29.958Z,18.80
2023-08-07T13:07:57.031Z,18.50
2023-08-07T13:10:23.671Z,18.60
2023-08-07T13:12:50.720Z,18.60
2023-08-07T13:15:18.523Z,18.50
2023-08-07T13:17:45.312Z,18.20
2023-08-07T13:20:14.348Z,18.40
2023-08-07T13:22:42.581Z,18.80
2023-08-07T13:25:10.282Z,19.10
2023-08-07T13:27:37.639Z,18.80
2023-08-07T13:30:05.620Z,18.70
2023-08-07T13:32:32.500Z,18.50
2023-08-07T13:34:59.119Z,18.40
2023-08-07T13:37:25.792Z,18.40
2023-08-07T13:39:52.435Z,18.10
2023-08-07T13:42:20.008Z,17.90
2023-08-07T13:44:46.786Z,17.80
2023-08-07T13:47:13.456Z,17.70
2023-08-07T13:49:40.460Z,17.60
2023-08-07T13:52:07.381Z,17.40
2023-08-07T13:54:34.079Z,17.50
2023-08-07T13:57:00.796Z,17.40
2023-08-07T13:59:27.409Z,17.30
2023-08-07T14:01:54.040Z,17.30
2023-08-07T14:04:20.647Z,17.20
2023-08-07T14:06:47.504Z,17.20
2023-08-07T14:09:14.151Z,17.20
2023-08-07T14:11:41.069Z,17.10
2023-08-07T14:14:07.702Z,17.30
2023-08-07T14:16:35.235Z,17.10
2023-08-07T14:19:02.950Z,16.90
2023-08-07T14:21:29.527Z,16.90
2023-08-07T14:23:56.194Z,16.90
2023-08-07T14:26:22.831Z,16.90
2023-08-07T14:28:49.469Z,16.80
2023-08-07T14:31:16.167Z,16.70
2023-08-07T14:33:42.835Z,16.70
2023-08-07T14:36:09.524Z,16.70
2023-08-07T14:38:36.157Z,16.50
2023-08-07T14:41:02.852Z,16.60
2023-08-07T14:43:30.856Z,16.50
2023-08-07T14:45:57.800Z,16.50
2023-08-07T14:48:24.451Z,16.50
2023-08-07T14:50:51.047Z,16.40
2023-08-07T14:53:17.706Z,16.50
2023-08-07T14:55:45.663Z,16.50
2023-08-07T14:58:12.696Z,16.40
2023-08-07T15:00:39.347Z,16.40
2023-08-07T15:03:06.076Z,16.40
2023-08-07T15:05:32.777Z,16.30
2023-08-07T15:08:01.465Z,16.40
2023-08-07T15:10:28.624Z,16.30
2023-08-07T15:12:55.256Z,16.20
2023-08-07T15:15:21.998Z,16.10
2023-08-07T15:17:48.691Z,16.10
2023-08-07T15:20:15.392Z,16.10
2023-08-07T15:22:42.009Z,16.00
2023-08-07T15:25:09.416Z,16.00
2023-08-07T15:27:36.014Z,16.00
2023-08-07T15:30:02.911Z,15.90
2023-08-07T15:32:29.536Z,15.70
2023-08-07T15:34:56.218Z,15.60
2023-08-07T15:37:22.868Z,15.40
2023-08-07T15:39:49.598Z,15.40
2023-08-07T15:42:16.217Z,15.40
2023-08-07T15:44:42.901Z,15.40
2023-08-07T15:47:09.509Z,15.40
2023-08-07T15:49:37.290Z,15.30
2023-08-07T15:52:04.188Z,15.30
2023-08-07T15:54:31.284Z,15.30
2023-08-07T15:56:58.211Z,15.40
2023-08-07T15:59:25.202Z,15.40
2023-08-07T16:01:51.868Z,15.50
2023-08-07T16:04:18.583Z,15.60
2023-08-07T16:06:45.244Z,15.40
2023-08-07T16:09:11.841Z,15.40
2023-08-07T16:11:38.482Z,15.40
2023-08-07T16:14:05.071Z,15.40
2023-08-07T16:16:31.672Z,15.40
2023-08-07T16:18:58.332Z,15.50
2023-08-07T16:21:24.986Z,15.60
2023-08-07T16:23:51.622Z,15.60
2023-08-07T16:26:18.288Z,15.50
2023-08-07T16:28:44.938Z,15.50
2023-08-07T16:31:11.563Z,15.50
2023-08-07T16:33:38.207Z,15.50
2023-08-07T16:36:04.966Z,15.50
2023-08-07T16:38:31.554Z,15.50
2023-08-07T16:40:58.178Z,15.50
2023-08-07T16:43:24.955Z,15.50
2023-08-07T16:45:51.602Z,15.40
2023-08-07T16:48:18.237Z,15.30
2023-08-07T16:50:56.852Z,15.30
2023-08-07T16:53:31.478Z,15.40
2023-08-07T16:55:58.165Z,15.40
2023-08-07T16:58:24.774Z,15.30
2023-08-07T17:00:51.378Z,15.40
2023-08-07T17:03:18.149Z,15.40
2023-08-07T17:05:44.868Z,15.30
2023-08-07T17:08:11.484Z,15.40
2023-08-07T17:10:38.137Z,15.30
2023-08-07T17:13:04.848Z,15.30
2023-08-07T17:15:31.617Z,15.30
2023-08-07T17:17:59.302Z,15.30
2023-08-07T17:20:25.898Z,15.30
2023-08-07T17:22:52.516Z,15.30
2023-08-07T17:25:19.151Z,15.30
2023-08-07T17:27:45.754Z,15.30
2023-08-07T17:30:12.896Z,15.30
2023-08-07T17:32:39.608Z,15.30
2023-08-07T17:35:07.024Z,15.30
2023-08-07T17:37:33.761Z,15.30
2023-08-07T17:40:00.399Z,15.30
2023-08-07T17:42:27.059Z,15.30
2023-08-07T17:44:53.705Z,15.20
2023-08-07T17:47:20.380Z,15.20
2023-08-07T17:49:47.001Z,15.20
2023-08-07T17:52:13.624Z,15.20
2023-08-07T17:54:40.359Z,15.20
2023-08-07T17:57:07.093Z,15.20
2023-08-07T17:59:33.708Z,15.20
2023-08-07T18:02:00.440Z,15.20
2023-08-07T18:04:27.089Z,15.20
2023-08-07T18:06:53.751Z,15.10
2023-08-07T18:09:20.525Z,15.10
2023-08-07T18:11:47.134Z,15.10
2023-08-07T18:14:13.885Z,15.00
2023-08-07T18:16:40.548Z,15.00
2023-08-07T18:19:07.183Z,14.90
2023-08-07T18:21:33.825Z,14.80
2023-08-07T18:24:00.419Z,14.80
2023-08-07T18:26:27.097Z,14.80
2023-08-07T18:28:53.696Z,14.80
2023-08-07T18:31:20.452Z,14.80
2023-08-07T18:33:47.121Z,14.80
2023-08-07T18:36:13.758Z,14.80
2023-08-07T18:38:40.388Z,14.80
2023-08-07T18:41:07.051Z,14.80
2023-08-07T18:43:33.646Z,14.80
2023-08-07T18:46:00.405Z,14.70
2023-08-07T18:48:27.048Z,14.70
2023-08-07T18:50:53.618Z,14.70
2023-08-07T18:53:20.472Z,14.70
2023-08-07T18:55:47.141Z,14.60
2023-08-07T18:58:13.744Z,14.60
2023-08-07T19:00:40.391Z,14.60
2023-08-07T19:03:07.193Z,14.50
2023-08-07T19:05:33.878Z,14.50
2023-08-07T19:08:00.512Z,14.40
2023-08-07T19:10:27.170Z,14.40
2023-08-07T19:12:53.790Z,14.40
2023-08-07T19:15:20.579Z,14.30
2023-08-07T19:17:47.262Z,14.30
2023-08-07T19:20:13.915Z,14.30
2023-08-07T19:22:40.705Z,14.30
2023-08-07T19:25:08.132Z,14.30
2023-08-07T19:27:34.745Z,14.30
2023-08-07T19:30:01.410Z,14.30
2023-08-07T19:32:28.071Z,14.30
2023-08-07T19:34:54.812Z,14.20
2023-08-07T19:37:21.450Z,14.30
2023-08-07T19:39:48.111Z,14.30
2023-08-07T19:42:14.690Z,14.30
2023-08-07T19:44:41.314Z,14.20
2023-08-07T19:47:08.103Z,14.20
2023-08-07T19:49:35.538Z,14.20
2023-08-07T19:52:02.151Z,14.20
2023-08-07T19:54:28.759Z,14.20
2023-08-07T19:56:55.498Z,14.10
2023-08-07T19:59:22.518Z,14.10
2023-08-07T20:01:49.116Z,14.00
2023-08-07T20:04:15.824Z,14.00
2023-08-07T20:06:42.529Z,14.00
2023-08-07T20:09:09.175Z,13.90
2023-08-07T20:11:37.453Z,13.90
2023-08-07T20:14:04.279Z,13.90
2023-08-07T20:16:30.962Z,13.90
2023-08-07T20:18:57.573Z,13.90
2023-08-07T20:21:24.237Z,13.80
2023-08-07T20:23:50.856Z,13.80
2023-08-07T20:26:17.580Z,13.70
2023-08-07T20:28:44.392Z,13.80
2023-08-07T20:31:11.061Z,13.70
2023-08-07T20:33:38.297Z,13.70
2023-08-07T20:36:05.940Z,13.60
2023-08-07T20:38:32.647Z,13.60
2023-08-07T20:40:59.235Z,13.50
2023-08-07T20:43:25.854Z,13.50
2023-08-07T20:45:52.439Z,13.40
2023-08-07T20:48:19.059Z,13.40
2023-08-07T20:50:45.698Z,13.30
2023-08-07T20:53:12.279Z,13.30
2023-08-07T20:55:38.891Z,13.30
2023-08-07T20:58:05.562Z,13.30
2023-08-07T21:00:32.228Z,13.30
2023-08-07T21:02:58.895Z,13.30
2023-08-07T21:05:25.590Z,13.30
2023-08-07T21:07:52.202Z,13.30
2023-08-07T21:10:18.875Z,13.30
2023-08-07T21:12:45.475Z,13.30
2023-08-07T21:15:12.134Z,13.30
2023-08-07T21:17:38.764Z,13.30
2023-08-07T21:20:06.102Z,13.30
2023-08-07T21:22:32.705Z,13.30
2023-08-07T21:24:59.409Z,13.30
2023-08-07T21:27:26.065Z,13.20
2023-08-07T21:29:52.839Z,13.20
2023-08-07T21:32:19.472Z,13.20
2023-08-07T21:34:46.113Z,13.10
2023-08-07T21:37:14.018Z,13.10
2023-08-07T21:39:40.763Z,13.10
2023-08-07T21:42:07.874Z,13.10
2023-08-07T21:44:34.525Z,13.00
2023-08-07T21:47:01.122Z,13.00
2023-08-07T21:49:27.728Z,12.90
2023-08-07T21:51:54.329Z,12.90
2023-08-07T21:54:21.011Z,12.90
2023-08-07T21:56:47.632Z,12.90
2023-08-07T21:59:14.218Z,12.80
2023-08-07T22:01:40.853Z,12.80
2023-08-07T22:04:07.599Z,12.80
2023-08-07T22:06:34.233Z,12.70
2023-08-07T22:09:00.829Z,12.80
2023-08-07T22:11:27.441Z,12.70
2023-08-07T22:13:54.031Z,12.70
2023-08-07T22:16:20.661Z,12.70
2023-08-07T22:18:47.305Z,12.70
2023-08-07T22:21:13.995Z,12.60
2023-08-07T22:23:41.102Z,12.60
2023-08-07T22:26:07.751Z,12.60
2023-08-07T22:28:34.396Z,12.60
2023-08-07T22:31:01.039Z,12.50
2023-08-07T22:33:27.975Z,12.50
2023-08-07T22:35:54.622Z,12.50
2023-08-07T22:38:21.201Z,12.50
2023-08-07T22:40:47.962Z,12.50
2023-08-07T22:43:14.607Z,12.40
2023-08-07T22:45:41.938Z,12.40
2023-08-07T22:48:08.610Z,12.40
2023-08-07T22:50:35.268Z,12.40
2023-08-07T22:53:01.880Z,12.30
2023-08-07T22:55:28.506Z,12.30
2023-08-07T22:57:55.079Z,12.30
2023-08-07T23:00:21.721Z,12.30
2023-08-07T23:02:48.445Z,12.20
2023-08-07T23:05:15.175Z,12.20
2023-08-07T23:07:41.776Z,12.30
2023-08-07T23:10:08.804Z,12.20
2023-08-07T23:12:35.433Z,12.20
2023-08-07T23:15:02.030Z,12.10
2023-08-07T23:17:28.660Z,12.10
2023-08-07T23:19:55.331Z,12.10
2023-08-07T23:22:21.954Z,12.10
2023-08-07T23:24:48.599Z,12.10
2023-08-07T23:27:15.235Z,12.10
2023-08-07T23:29:43.094Z,12.10
2023-08-07T23:32:10.067Z,12.10
2023-08-07T23:34:36.932Z,12.00
2023-08-07T23:37:03.812Z,12.10
2023-08-07T23:39:30.451Z,12.10
2023-08-07T23:41:57.291Z,12.10
2023-08-07T23:44:24.306Z,12.10
2023-08-07T23:46:50.920Z,12.10
2023-08-07T23:49:17.626Z,12.10
2023-08-07T23:51:44.304Z,12.10
2023-08-07T23:54:10.952Z,12.10
2023-08-07T23:56:37.556Z,12.10
2023-08-07T23:59:04.198Z,12.10
